KIJX/IJX METAR and TAF weather

Enter ICAO airport designator
Station Type Date Time Source
KIJX METAR 2020/11/27 03:15 UTC NOAA

KIJX 270315Z AUTO 15003KT 7SM CLR 00/00 A3007 RMK AO2 T00040004


Station Type Date Time Source
KIJX Decoded METAR 2020/11/27 03:15 UTC NOAA

Jacksonville, Jacksonville Municipal Airport, IL, United States (KIJX) 39-46-27N 090-14-19W
Nov 26, 2020 - 10:15 PM EST / 2020.11.27 0315 UTC
Wind: from the SSE (150 degrees) at 3 MPH (3 KT):0
Visibility: 7 mile(s):0
Sky conditions: clear
Temperature: 32.7 F (0.4 C)
Dew Point: 32.7 F (0.4 C)
Relative Humidity: 100%
Pressure (altimeter): 30.07 in. Hg (1018 hPa)
ob: KIJX 270315Z AUTO 15003KT 7SM CLR 00/00 A3007 RMK AO2 T00040004
cycle: 3

Station Type Date Time Source
KIJX TAF UTC NOAA

Error!

Example: see airport list